EAG5508 SBGL-SACO
Flight info
| Callsign | EAG5508 |
|---|---|
| Flight time | 3h 4m |
| Altitude | 34000 |
| Route | BITAK UM400 ILVAX/N0490F360 UM400 GEMOP GEMOP1Q |
| Aircraft | MD11/H-SDE1E2E3FGHIJ2J3J4J5M1RWXY/LB1D1 |
Departure
| Time | 2026-04-28 21:56 |
|---|---|
| Airport | Rio Galeão – Tom Jobim International Airport (SBGL) |
Arrival
| Time | 2026-04-29 01:01 |
|---|---|
| Airport | Ingeniero Aeronáutico Ambrosio L.V. Taravella International Airport (SACO) |
| Time | Latitude | Longitude | Altitude | Speed | Heading |
|---|---|---|---|---|---|
| 2026-04-28 21:36 | -22.81904 | -43.24481 | 34 ft | 0 kts | 77° |
| 2026-04-28 21:45 | -22.81906 | -43.24489 | 33 ft | 4 kts | 77° |
| 2026-04-28 21:45 | -22.81912 | -43.24517 | 34 ft | 4 kts | 77° |
| 2026-04-28 21:46 | -22.81919 | -43.24545 | 34 ft | 3 kts | 77° |
| 2026-04-28 21:46 | -22.81927 | -43.24568 | 33 ft | 4 kts | 28° |
| 2026-04-28 21:46 | -22.81945 | -43.24566 | 30 ft | 4 kts | 320° |
| 2026-04-28 21:46 | -22.81964 | -43.24545 | 30 ft | 4 kts | 309° |
| 2026-04-28 21:47 | -22.81973 | -43.24533 | 31 ft | 0 kts | 306° |
| 2026-04-28 21:49 | -22.81963 | -43.24548 | 30 ft | 5 kts | 306° |
| 2026-04-28 21:49 | -22.81959 | -43.24605 | 34 ft | 11 kts | 263° |
| 2026-04-28 21:49 | -22.81926 | -43.24708 | 33 ft | 20 kts | 304° |
| 2026-04-28 21:50 | -22.81840 | -43.24837 | 34 ft | 22 kts | 307° |
| 2026-04-28 21:50 | -22.81757 | -43.24964 | 34 ft | 19 kts | 305° |
| 2026-04-28 21:50 | -22.81686 | -43.25069 | 34 ft | 16 kts | 305° |
| 2026-04-28 21:50 | -22.81611 | -43.25184 | 34 ft | 21 kts | 307° |
| 2026-04-28 21:51 | -22.81532 | -43.25302 | 34 ft | 18 kts | 305° |
| 2026-04-28 21:51 | -22.81462 | -43.25409 | 34 ft | 16 kts | 305° |
| 2026-04-28 21:51 | -22.81402 | -43.25501 | 34 ft | 15 kts | 306° |
| 2026-04-28 21:51 | -22.81334 | -43.25602 | 34 ft | 16 kts | 304° |
| 2026-04-28 21:52 | -22.81263 | -43.25710 | 33 ft | 18 kts | 305° |
| 2026-04-28 21:52 | -22.81196 | -43.25811 | 34 ft | 15 kts | 307° |
| 2026-04-28 21:52 | -22.81138 | -43.25896 | 34 ft | 14 kts | 308° |
| 2026-04-28 21:52 | -22.81060 | -43.25907 | 34 ft | 12 kts | 24° |
| 2026-04-28 21:53 | -22.80983 | -43.25851 | 34 ft | 14 kts | 36° |
| 2026-04-28 21:53 | -22.80898 | -43.25785 | 34 ft | 16 kts | 35° |
| 2026-04-28 21:53 | -22.80800 | -43.25710 | 34 ft | 18 kts | 34° |
| 2026-04-28 21:53 | -22.80700 | -43.25638 | 33 ft | 16 kts | 32° |
| 2026-04-28 21:54 | -22.80630 | -43.25581 | 34 ft | 13 kts | 37° |
| 2026-04-28 21:54 | -22.80551 | -43.25535 | 34 ft | 11 kts | 2° |
| 2026-04-28 21:54 | -22.80470 | -43.25576 | 34 ft | 16 kts | 326° |
| 2026-04-28 21:54 | -22.80368 | -43.25603 | 34 ft | 14 kts | 18° |
| 2026-04-28 21:55 | -22.80283 | -43.25542 | 33 ft | 17 kts | 39° |
| 2026-04-28 21:55 | -22.80202 | -43.25480 | 34 ft | 12 kts | 28° |
| 2026-04-28 21:55 | -22.80160 | -43.25420 | 34 ft | 8 kts | 72° |
| 2026-04-28 21:55 | -22.80144 | -43.25362 | 34 ft | 39 kts | 74° |
| 2026-04-28 21:56 | -22.79982 | -43.24730 | 34 ft | 132 kts | 75° |
| 2026-04-28 21:56 | -22.79664 | -43.23533 | 207 ft | 184 kts | 76° |
| 2026-04-28 21:56 | -22.79299 | -43.22292 | 1412 ft | 167 kts | 74° |
| 2026-04-28 21:56 | -22.78966 | -43.21078 | 2507 ft | 168 kts | 74° |
| 2026-04-28 21:57 | -22.78640 | -43.19841 | 3417 ft | 182 kts | 74° |
| 2026-04-28 21:57 | -22.78246 | -43.18342 | 3670 ft | 229 kts | 73° |
| 2026-04-28 21:57 | -22.77800 | -43.16635 | 4491 ft | 238 kts | 73° |
| 2026-04-28 21:57 | -22.77344 | -43.14888 | 5591 ft | 244 kts | 73° |
| 2026-04-28 21:58 | -22.76878 | -43.13093 | 6594 ft | 251 kts | 73° |
| 2026-04-28 21:58 | -22.76404 | -43.11268 | 7581 ft | 257 kts | 72° |
| 2026-04-28 21:58 | -22.75911 | -43.09365 | 8537 ft | 262 kts | 73° |
| 2026-04-28 21:58 | -22.75415 | -43.07447 | 9485 ft | 267 kts | 73° |
| 2026-04-28 21:59 | -22.74975 | -43.05505 | 10328 ft | 273 kts | 83° |
| 2026-04-28 21:59 | -22.75027 | -43.03443 | 11174 ft | 278 kts | 98° |
| 2026-04-28 21:59 | -22.75637 | -43.01448 | 12015 ft | 283 kts | 120° |
| 2026-04-28 22:00 | -22.78801 | -42.98952 | 13640 ft | 293 kts | 160° |
| 2026-04-28 22:00 | -22.80745 | -42.98229 | 14411 ft | 298 kts | 163° |
| 2026-04-28 22:00 | -22.82737 | -42.97533 | 15143 ft | 304 kts | 161° |
| 2026-04-28 22:00 | -22.84689 | -42.96603 | 15836 ft | 310 kts | 156° |
| 2026-04-28 22:01 | -22.86727 | -42.95817 | 16226 ft | 326 kts | 172° |
| 2026-04-28 22:01 | -22.89050 | -42.95897 | 16360 ft | 347 kts | 199° |
| 2026-04-28 22:01 | -22.91233 | -42.97128 | 16518 ft | 365 kts | 223° |
| 2026-04-28 22:01 | -22.92923 | -42.99248 | 16666 ft | 382 kts | 242° |
| 2026-04-28 22:02 | -22.94108 | -43.01884 | 16864 ft | 396 kts | 247° |
| 2026-04-28 22:02 | -22.95609 | -43.04411 | 17546 ft | 404 kts | 234° |
| 2026-04-28 22:02 | -22.97539 | -43.06664 | 18258 ft | 411 kts | 227° |
| 2026-04-28 22:02 | -22.99682 | -43.08742 | 18886 ft | 416 kts | 224° |
| 2026-04-28 22:03 | -23.01896 | -43.10718 | 19461 ft | 420 kts | 223° |
| 2026-04-28 22:03 | -23.04186 | -43.12700 | 19995 ft | 423 kts | 222° |
| 2026-04-28 22:03 | -23.06501 | -43.14690 | 20558 ft | 426 kts | 222° |
| 2026-04-28 22:03 | -23.08827 | -43.16696 | 21158 ft | 429 kts | 222° |
| 2026-04-28 22:04 | -23.11166 | -43.18724 | 21769 ft | 432 kts | 223° |
| 2026-04-28 22:04 | -23.13522 | -43.20777 | 22345 ft | 435 kts | 223° |
| 2026-04-28 22:04 | -23.15890 | -43.22847 | 22975 ft | 438 kts | 223° |
| 2026-04-28 22:04 | -23.18274 | -43.24934 | 23634 ft | 441 kts | 223° |
| 2026-04-28 22:05 | -23.20669 | -43.27034 | 24196 ft | 445 kts | 223° |
| 2026-04-28 22:05 | -23.23052 | -43.29124 | 24739 ft | 448 kts | 223° |
| 2026-04-28 22:05 | -23.25485 | -43.31259 | 25303 ft | 451 kts | 223° |
| 2026-04-28 22:05 | -23.27932 | -43.33408 | 25854 ft | 454 kts | 223° |
| 2026-04-28 22:06 | -23.30395 | -43.35571 | 26411 ft | 457 kts | 224° |
| 2026-04-28 22:06 | -23.32880 | -43.37754 | 26963 ft | 461 kts | 224° |
| 2026-04-28 22:06 | -23.35389 | -43.39939 | 27514 ft | 464 kts | 224° |
| 2026-04-28 22:06 | -23.37925 | -43.42133 | 28026 ft | 468 kts | 224° |
| 2026-04-28 22:07 | -23.40491 | -43.44344 | 28543 ft | 471 kts | 224° |
| 2026-04-28 22:07 | -23.43069 | -43.46564 | 29055 ft | 475 kts | 224° |
| 2026-04-28 22:07 | -23.45636 | -43.48775 | 29553 ft | 479 kts | 224° |
| 2026-04-28 22:07 | -23.48257 | -43.51034 | 30041 ft | 482 kts | 224° |
| 2026-04-28 22:08 | -23.50895 | -43.53310 | 30441 ft | 485 kts | 224° |
| 2026-04-28 22:08 | -23.53545 | -43.55596 | 30826 ft | 487 kts | 224° |
| 2026-04-28 22:08 | -23.56205 | -43.57894 | 31211 ft | 489 kts | 224° |
| 2026-04-28 22:08 | -23.58867 | -43.60193 | 31695 ft | 487 kts | 224° |
| 2026-04-28 22:09 | -23.61473 | -43.62535 | 32181 ft | 482 kts | 227° |
| 2026-04-28 22:09 | -23.63775 | -43.65148 | 32663 ft | 474 kts | 236° |
| 2026-04-28 22:09 | -23.65631 | -43.68027 | 33039 ft | 467 kts | 244° |
| 2026-04-28 22:09 | -23.67102 | -43.71155 | 33415 ft | 462 kts | 249° |
| 2026-04-28 22:10 | -23.68385 | -43.74366 | 33797 ft | 460 kts | 251° |
| 2026-04-28 22:10 | -23.69637 | -43.77576 | 33999 ft | 461 kts | 250° |
| 2026-04-28 22:10 | -23.70927 | -43.80775 | 34037 ft | 460 kts | 249° |
| 2026-04-28 22:11 | -23.73630 | -43.87113 | 34050 ft | 461 kts | 248° |
| 2026-04-28 22:11 | -23.76401 | -43.93376 | 34049 ft | 461 kts | 248° |
| 2026-04-28 22:12 | -23.79205 | -43.99675 | 34051 ft | 461 kts | 248° |
| 2026-04-28 22:12 | -23.82005 | -44.05981 | 34052 ft | 461 kts | 248° |
| 2026-04-28 22:13 | -23.84804 | -44.12286 | 34052 ft | 461 kts | 248° |
| 2026-04-28 22:13 | -23.87606 | -44.18597 | 34051 ft | 461 kts | 248° |
| 2026-04-28 22:14 | -23.90395 | -44.24858 | 34049 ft | 462 kts | 248° |
| 2026-04-28 22:14 | -23.93249 | -44.31144 | 34064 ft | 462 kts | 247° |
| 2026-04-28 22:15 | -23.96107 | -44.37402 | 34050 ft | 459 kts | 247° |
| 2026-04-28 22:15 | -23.98956 | -44.43655 | 34047 ft | 459 kts | 248° |
| 2026-04-28 22:16 | -24.01785 | -44.49875 | 34052 ft | 460 kts | 248° |
| 2026-04-28 22:16 | -24.04629 | -44.56139 | 34048 ft | 460 kts | 248° |
| 2026-04-28 22:17 | -24.07468 | -44.62406 | 34053 ft | 459 kts | 248° |
| 2026-04-28 22:17 | -24.10299 | -44.68655 | 34051 ft | 458 kts | 248° |
| 2026-04-28 22:18 | -24.13166 | -44.74891 | 34047 ft | 459 kts | 247° |
| 2026-04-28 22:18 | -24.16043 | -44.81073 | 34049 ft | 459 kts | 247° |
| 2026-04-28 22:19 | -24.18942 | -44.87301 | 34053 ft | 459 kts | 247° |
| 2026-04-28 22:19 | -24.21830 | -44.93519 | 34045 ft | 458 kts | 247° |
| 2026-04-28 22:20 | -24.24718 | -44.99751 | 34050 ft | 458 kts | 247° |
| 2026-04-28 22:20 | -24.27597 | -45.05974 | 34050 ft | 458 kts | 247° |
| 2026-04-28 22:21 | -24.30456 | -45.12160 | 34048 ft | 458 kts | 247° |
| 2026-04-28 22:21 | -24.33333 | -45.18392 | 34048 ft | 458 kts | 247° |
| 2026-04-28 22:22 | -24.36208 | -45.24630 | 34048 ft | 458 kts | 247° |
| 2026-04-28 22:22 | -24.39080 | -45.30870 | 34050 ft | 458 kts | 247° |
| 2026-04-28 22:23 | -24.41930 | -45.37069 | 34050 ft | 458 kts | 247° |
| 2026-04-28 22:23 | -24.44799 | -45.43318 | 34047 ft | 458 kts | 247° |
| 2026-04-28 22:24 | -24.47664 | -45.49567 | 34049 ft | 458 kts | 247° |
| 2026-04-28 22:24 | -24.50513 | -45.55821 | 34049 ft | 458 kts | 248° |
| 2026-04-28 22:25 | -24.53358 | -45.62072 | 34048 ft | 456 kts | 247° |
| 2026-04-28 22:25 | -24.56175 | -45.68249 | 34049 ft | 455 kts | 247° |
| 2026-04-28 22:26 | -24.59010 | -45.74469 | 34051 ft | 455 kts | 247° |
| 2026-04-28 22:26 | -24.61840 | -45.80682 | 34050 ft | 452 kts | 248° |
| 2026-04-28 22:27 | -24.64640 | -45.86837 | 34048 ft | 450 kts | 248° |
| 2026-04-28 22:27 | -24.67415 | -45.92949 | 34048 ft | 450 kts | 248° |
| 2026-04-28 22:28 | -24.70207 | -45.99108 | 34052 ft | 449 kts | 248° |
| 2026-04-28 22:28 | -24.72982 | -46.05232 | 34048 ft | 447 kts | 248° |
| 2026-04-28 22:29 | -24.75749 | -46.11350 | 34044 ft | 447 kts | 248° |
| 2026-04-28 22:29 | -24.78495 | -46.17431 | 34070 ft | 447 kts | 248° |
| 2026-04-28 22:30 | -24.81245 | -46.23525 | 34050 ft | 444 kts | 249° |
| 2026-04-28 22:30 | -24.83983 | -46.29603 | 34050 ft | 443 kts | 249° |
| 2026-04-28 22:31 | -24.86713 | -46.35691 | 34050 ft | 443 kts | 249° |
| 2026-04-28 22:31 | -24.89430 | -46.41776 | 34038 ft | 442 kts | 249° |
| 2026-04-28 22:32 | -24.92126 | -46.47798 | 34055 ft | 441 kts | 249° |
| 2026-04-28 22:32 | -24.94842 | -46.53863 | 34051 ft | 441 kts | 249° |
| 2026-04-28 22:33 | -24.97557 | -46.59931 | 34042 ft | 441 kts | 249° |
| 2026-04-28 22:33 | -25.00269 | -46.65999 | 34042 ft | 441 kts | 249° |
| 2026-04-28 22:34 | -25.02955 | -46.72032 | 34042 ft | 441 kts | 249° |
| 2026-04-28 22:34 | -25.05658 | -46.78107 | 34048 ft | 441 kts | 249° |
| 2026-04-28 22:35 | -25.08361 | -46.84180 | 34042 ft | 441 kts | 249° |
| 2026-04-28 22:35 | -25.11062 | -46.90254 | 34048 ft | 441 kts | 249° |
| 2026-04-28 22:36 | -25.13742 | -46.96290 | 34042 ft | 441 kts | 249° |
| 2026-04-28 22:36 | -25.16412 | -47.02376 | 34049 ft | 439 kts | 250° |
| 2026-04-28 22:37 | -25.19057 | -47.08451 | 34052 ft | 439 kts | 250° |
| 2026-04-28 22:37 | -25.21707 | -47.14536 | 34049 ft | 439 kts | 250° |
| 2026-04-28 22:38 | -25.24334 | -47.20573 | 34055 ft | 439 kts | 250° |
| 2026-04-28 22:38 | -25.26978 | -47.26655 | 34062 ft | 439 kts | 250° |
| 2026-04-28 22:39 | -25.29616 | -47.32730 | 34058 ft | 439 kts | 250° |
| 2026-04-28 22:39 | -25.32252 | -47.38810 | 34076 ft | 439 kts | 250° |
| 2026-04-28 22:40 | -25.34865 | -47.44844 | 34062 ft | 438 kts | 250° |
| 2026-04-28 22:40 | -25.37492 | -47.50921 | 34063 ft | 438 kts | 250° |
| 2026-04-28 22:41 | -25.40114 | -47.56998 | 34069 ft | 438 kts | 250° |
| 2026-04-28 22:41 | -25.42723 | -47.63083 | 34073 ft | 437 kts | 251° |
| 2026-04-28 22:42 | -25.45312 | -47.69119 | 34066 ft | 437 kts | 251° |
| 2026-04-28 22:42 | -25.47919 | -47.75195 | 34071 ft | 437 kts | 250° |
| 2026-04-28 22:43 | -25.50525 | -47.81272 | 34083 ft | 437 kts | 251° |
| 2026-04-28 22:43 | -25.53122 | -47.87345 | 34075 ft | 436 kts | 251° |
| 2026-04-28 22:44 | -25.55696 | -47.93370 | 34080 ft | 436 kts | 251° |
| 2026-04-28 22:44 | -25.58287 | -47.99439 | 34076 ft | 436 kts | 251° |
| 2026-04-28 22:45 | -25.60875 | -48.05505 | 34077 ft | 435 kts | 251° |
| 2026-04-28 22:45 | -25.63457 | -48.11570 | 34076 ft | 435 kts | 251° |
| 2026-04-28 22:46 | -25.66011 | -48.17596 | 34087 ft | 435 kts | 251° |
| 2026-04-28 22:46 | -25.68582 | -48.23664 | 34093 ft | 435 kts | 251° |
| 2026-04-28 22:47 | -25.71157 | -48.29742 | 34087 ft | 436 kts | 251° |
| 2026-04-28 22:47 | -25.73731 | -48.35828 | 34090 ft | 436 kts | 252° |
| 2026-04-28 22:48 | -25.76286 | -48.41873 | 34091 ft | 436 kts | 252° |
| 2026-04-28 22:48 | -25.78854 | -48.47959 | 34101 ft | 435 kts | 252° |
| 2026-04-28 22:49 | -25.81415 | -48.54039 | 34104 ft | 435 kts | 252° |
| 2026-04-28 22:49 | -25.83979 | -48.60134 | 34092 ft | 436 kts | 252° |
| 2026-04-28 22:50 | -25.86521 | -48.66185 | 34113 ft | 435 kts | 252° |
| 2026-04-28 22:50 | -25.89069 | -48.72265 | 34106 ft | 434 kts | 252° |
| 2026-04-28 22:51 | -25.91603 | -48.78341 | 34107 ft | 433 kts | 252° |
| 2026-04-28 22:51 | -25.94129 | -48.84405 | 34114 ft | 432 kts | 252° |
| 2026-04-28 22:52 | -25.96643 | -48.90443 | 34111 ft | 433 kts | 252° |
| 2026-04-28 22:52 | -25.99169 | -48.96514 | 34111 ft | 433 kts | 252° |
| 2026-04-28 22:53 | -26.01694 | -49.02585 | 34119 ft | 432 kts | 252° |
| 2026-04-28 22:53 | -26.04211 | -49.08649 | 34124 ft | 432 kts | 252° |
| 2026-04-28 22:54 | -26.06732 | -49.14727 | 34131 ft | 432 kts | 252° |
| 2026-04-28 22:54 | -26.09229 | -49.20750 | 34116 ft | 431 kts | 252° |
| 2026-04-28 22:55 | -26.11736 | -49.26808 | 34122 ft | 431 kts | 252° |
| 2026-04-28 22:55 | -26.14250 | -49.32873 | 34122 ft | 431 kts | 252° |
| 2026-04-28 22:56 | -26.16758 | -49.38939 | 34115 ft | 431 kts | 252° |
| 2026-04-28 22:56 | -26.19244 | -49.44963 | 34117 ft | 431 kts | 252° |
| 2026-04-28 22:57 | -26.21747 | -49.51032 | 34116 ft | 431 kts | 252° |
| 2026-04-28 22:57 | -26.24237 | -49.57097 | 34118 ft | 430 kts | 253° |
| 2026-04-28 22:58 | -26.26692 | -49.63123 | 34111 ft | 430 kts | 253° |
| 2026-04-28 22:58 | -26.29161 | -49.69191 | 34114 ft | 430 kts | 253° |
| 2026-04-28 22:59 | -26.31628 | -49.75257 | 34129 ft | 430 kts | 253° |
| 2026-04-28 22:59 | -26.34090 | -49.81313 | 34114 ft | 428 kts | 253° |
| 2026-04-28 23:00 | -26.36555 | -49.87355 | 34116 ft | 428 kts | 253° |
| 2026-04-28 23:00 | -26.39009 | -49.93360 | 34118 ft | 428 kts | 253° |
| 2026-04-28 23:01 | -26.41478 | -49.99400 | 34118 ft | 427 kts | 253° |
| 2026-04-28 23:01 | -26.43940 | -50.05435 | 34112 ft | 427 kts | 253° |
| 2026-04-28 23:02 | -26.46395 | -50.11463 | 34120 ft | 427 kts | 253° |
| 2026-04-28 23:02 | -26.48829 | -50.17447 | 34112 ft | 427 kts | 253° |
| 2026-04-28 23:03 | -26.51282 | -50.23485 | 34120 ft | 425 kts | 253° |
| 2026-04-28 23:03 | -26.53720 | -50.29494 | 34117 ft | 425 kts | 253° |
| 2026-04-28 23:04 | -26.56149 | -50.35501 | 34110 ft | 424 kts | 253° |
| 2026-04-28 23:04 | -26.59712 | -50.44506 | 34119 ft | 424 kts | 254° |
| 2026-04-28 23:05 | -26.62086 | -50.50519 | 34114 ft | 423 kts | 254° |
| 2026-04-28 23:05 | -26.64473 | -50.56532 | 34112 ft | 423 kts | 253° |
| 2026-04-28 23:06 | -26.66476 | -50.61523 | 34109 ft | 423 kts | 253° |
| 2026-04-28 23:06 | -26.69281 | -50.68499 | 34099 ft | 423 kts | 254° |
| 2026-04-28 23:07 | -26.71686 | -50.74490 | 34096 ft | 423 kts | 254° |
| 2026-04-28 23:07 | -26.74089 | -50.80490 | 34093 ft | 423 kts | 254° |
| 2026-04-28 23:08 | -26.76082 | -50.85486 | 34092 ft | 423 kts | 254° |
| 2026-04-28 23:08 | -26.78860 | -50.92463 | 34099 ft | 422 kts | 254° |
| 2026-04-28 23:09 | -26.80861 | -50.97490 | 34095 ft | 422 kts | 254° |
| 2026-04-28 23:09 | -26.83230 | -51.03449 | 34090 ft | 422 kts | 254° |
| 2026-04-28 23:10 | -26.85612 | -51.09445 | 34079 ft | 422 kts | 254° |
| 2026-04-28 23:10 | -26.87991 | -51.15445 | 34074 ft | 421 kts | 254° |
| 2026-04-28 23:11 | -26.90368 | -51.21446 | 34076 ft | 421 kts | 254° |
| 2026-04-28 23:11 | -26.92726 | -51.27409 | 34072 ft | 421 kts | 254° |
| 2026-04-28 23:12 | -26.95096 | -51.33411 | 34089 ft | 422 kts | 254° |
| 2026-04-28 23:12 | -26.97464 | -51.39418 | 34082 ft | 421 kts | 255° |
| 2026-04-28 23:13 | -26.99828 | -51.45424 | 34079 ft | 421 kts | 255° |
| 2026-04-28 23:13 | -27.02174 | -51.51392 | 34071 ft | 421 kts | 254° |
| 2026-04-28 23:14 | -27.04533 | -51.57404 | 34080 ft | 421 kts | 255° |
| 2026-04-28 23:14 | -27.06886 | -51.63407 | 34074 ft | 420 kts | 255° |
| 2026-04-28 23:15 | -27.09230 | -51.69415 | 34071 ft | 420 kts | 255° |
| 2026-04-28 23:15 | -27.11546 | -51.75391 | 34071 ft | 420 kts | 255° |
| 2026-04-28 23:16 | -27.14279 | -51.82423 | 34081 ft | 421 kts | 255° |
| 2026-04-28 23:16 | -27.16226 | -51.87422 | 34070 ft | 420 kts | 255° |
| 2026-04-28 23:17 | -27.18560 | -51.93436 | 34068 ft | 420 kts | 255° |
| 2026-04-28 23:17 | -27.20892 | -51.99451 | 34069 ft | 420 kts | 255° |
| 2026-04-28 23:18 | -27.23206 | -52.05428 | 34090 ft | 420 kts | 255° |
| 2026-04-28 23:18 | -27.25524 | -52.11431 | 34062 ft | 418 kts | 256° |
| 2026-04-28 23:19 | -27.27834 | -52.17428 | 34062 ft | 418 kts | 256° |
| 2026-04-28 23:19 | -27.30144 | -52.23428 | 34062 ft | 418 kts | 256° |
| 2026-04-28 23:20 | -27.32438 | -52.29393 | 34086 ft | 418 kts | 256° |
| 2026-04-28 23:20 | -27.34739 | -52.35382 | 34072 ft | 416 kts | 256° |
| 2026-04-28 23:21 | -27.37032 | -52.41362 | 34063 ft | 416 kts | 256° |
| 2026-04-28 23:21 | -27.39320 | -52.47335 | 34075 ft | 414 kts | 256° |
| 2026-04-28 23:22 | -27.41574 | -52.53230 | 34087 ft | 412 kts | 256° |
| 2026-04-28 23:22 | -27.43838 | -52.59180 | 34072 ft | 414 kts | 256° |
| 2026-04-28 23:23 | -27.46096 | -52.65131 | 34070 ft | 413 kts | 256° |
| 2026-04-28 23:23 | -27.48357 | -52.71079 | 34068 ft | 413 kts | 256° |
| 2026-04-28 23:24 | -27.50602 | -52.76985 | 34082 ft | 413 kts | 256° |
| 2026-04-28 23:24 | -27.52855 | -52.82922 | 34069 ft | 412 kts | 256° |
| 2026-04-28 23:25 | -27.55098 | -52.88864 | 34066 ft | 412 kts | 256° |
| 2026-04-28 23:25 | -27.57340 | -52.94807 | 34070 ft | 412 kts | 256° |
| 2026-04-28 23:26 | -27.59585 | -53.00759 | 34070 ft | 412 kts | 256° |
| 2026-04-28 23:26 | -27.61805 | -53.06656 | 34075 ft | 411 kts | 256° |
| 2026-04-28 23:27 | -27.64034 | -53.12585 | 34067 ft | 411 kts | 256° |
| 2026-04-28 23:27 | -27.66262 | -53.18515 | 34069 ft | 411 kts | 256° |
| 2026-04-28 23:28 | -27.68489 | -53.24448 | 34066 ft | 411 kts | 256° |
| 2026-04-28 23:28 | -27.70696 | -53.30334 | 34077 ft | 409 kts | 256° |
| 2026-04-28 23:29 | -27.72907 | -53.36242 | 34065 ft | 409 kts | 256° |
| 2026-04-28 23:29 | -27.75113 | -53.42146 | 34075 ft | 408 kts | 256° |
| 2026-04-28 23:30 | -27.77315 | -53.48050 | 34077 ft | 408 kts | 257° |
| 2026-04-28 23:30 | -27.79500 | -53.53918 | 34079 ft | 408 kts | 256° |
| 2026-04-28 23:31 | -27.81697 | -53.59825 | 34067 ft | 408 kts | 256° |
| 2026-04-28 23:31 | -27.83894 | -53.65740 | 34083 ft | 408 kts | 256° |
| 2026-04-28 23:32 | -27.86086 | -53.71653 | 34068 ft | 408 kts | 257° |
| 2026-04-28 23:32 | -27.88263 | -53.77532 | 34078 ft | 408 kts | 257° |
| 2026-04-28 23:33 | -27.90445 | -53.83435 | 34075 ft | 407 kts | 257° |
| 2026-04-28 23:33 | -27.92618 | -53.89337 | 34078 ft | 407 kts | 257° |
| 2026-04-28 23:34 | -27.94775 | -53.95245 | 34078 ft | 406 kts | 257° |
| 2026-04-28 23:34 | -27.96940 | -54.01157 | 34097 ft | 407 kts | 257° |
| 2026-04-28 23:35 | -27.99091 | -54.07016 | 34076 ft | 406 kts | 257° |
| 2026-04-28 23:35 | -28.01255 | -54.12919 | 34075 ft | 406 kts | 257° |
| 2026-04-28 23:36 | -28.03418 | -54.18826 | 34076 ft | 406 kts | 257° |
| 2026-04-28 23:36 | -28.05576 | -54.24731 | 34089 ft | 406 kts | 257° |
| 2026-04-28 23:37 | -28.07720 | -54.30605 | 34075 ft | 406 kts | 257° |
| 2026-04-28 23:37 | -28.09876 | -54.36522 | 34078 ft | 406 kts | 257° |
| 2026-04-28 23:38 | -28.12032 | -54.42445 | 34078 ft | 406 kts | 257° |
| 2026-04-28 23:38 | -28.14181 | -54.48362 | 34074 ft | 406 kts | 257° |
| 2026-04-28 23:39 | -28.16316 | -54.54246 | 34078 ft | 407 kts | 257° |
| 2026-04-28 23:39 | -28.18465 | -54.60184 | 34125 ft | 409 kts | 257° |
| 2026-04-28 23:40 | -28.19541 | -54.63160 | 34526 ft | 408 kts | 257° |
| 2026-04-28 23:40 | -28.20616 | -54.66133 | 34889 ft | 406 kts | 257° |
| 2026-04-28 23:40 | -28.21686 | -54.69087 | 35242 ft | 404 kts | 257° |
| 2026-04-28 23:40 | -28.22746 | -54.72024 | 35591 ft | 401 kts | 257° |
| 2026-04-28 23:41 | -28.23792 | -54.74946 | 35930 ft | 400 kts | 258° |
| 2026-04-28 23:41 | -28.24834 | -54.77867 | 36039 ft | 398 kts | 258° |
| 2026-04-28 23:41 | -28.26895 | -54.83635 | 36072 ft | 397 kts | 258° |
| 2026-04-28 23:42 | -28.28976 | -54.89442 | 36076 ft | 397 kts | 258° |
| 2026-04-28 23:42 | -28.31057 | -54.95250 | 36076 ft | 397 kts | 258° |
| 2026-04-28 23:43 | -28.33137 | -55.01057 | 36096 ft | 397 kts | 258° |
| 2026-04-28 23:43 | -28.35202 | -55.06836 | 36078 ft | 398 kts | 258° |
| 2026-04-28 23:44 | -28.37284 | -55.12667 | 36078 ft | 399 kts | 258° |
| 2026-04-28 23:44 | -28.39363 | -55.18500 | 36082 ft | 399 kts | 258° |
| 2026-04-28 23:45 | -28.41441 | -55.24339 | 36076 ft | 399 kts | 258° |
| 2026-04-28 23:45 | -28.43517 | -55.30183 | 36076 ft | 399 kts | 258° |
| 2026-04-28 23:46 | -28.45577 | -55.35990 | 36075 ft | 399 kts | 258° |
| 2026-04-28 23:46 | -28.47649 | -55.41839 | 36072 ft | 399 kts | 258° |
| 2026-04-28 23:47 | -28.49720 | -55.47696 | 36077 ft | 399 kts | 258° |
| 2026-04-28 23:47 | -28.51788 | -55.53556 | 36097 ft | 399 kts | 258° |
| 2026-04-28 23:48 | -28.53843 | -55.59393 | 36078 ft | 401 kts | 258° |
| 2026-04-28 23:48 | -28.55895 | -55.65280 | 36073 ft | 401 kts | 258° |
| 2026-04-28 23:49 | -28.57953 | -55.71175 | 36075 ft | 401 kts | 258° |
| 2026-04-28 23:49 | -28.60016 | -55.77067 | 36076 ft | 401 kts | 258° |
| 2026-04-28 23:50 | -28.62081 | -55.82967 | 36076 ft | 402 kts | 258° |
| 2026-04-28 23:50 | -28.64136 | -55.88846 | 36074 ft | 402 kts | 258° |
| 2026-04-28 23:51 | -28.66203 | -55.94767 | 36075 ft | 402 kts | 258° |
| 2026-04-28 23:51 | -28.68267 | -56.00691 | 36076 ft | 403 kts | 258° |
| 2026-04-28 23:52 | -28.70330 | -56.06616 | 36075 ft | 402 kts | 258° |
| 2026-04-28 23:52 | -28.72375 | -56.12508 | 36086 ft | 404 kts | 257° |
| 2026-04-28 23:53 | -28.74473 | -56.18460 | 36076 ft | 406 kts | 257° |
| 2026-04-28 23:53 | -28.76605 | -56.24414 | 36076 ft | 406 kts | 257° |
| 2026-04-28 23:54 | -28.78742 | -56.30373 | 36089 ft | 406 kts | 257° |
| 2026-04-28 23:54 | -28.80863 | -56.36306 | 36078 ft | 408 kts | 257° |
| 2026-04-28 23:55 | -28.83007 | -56.42306 | 36074 ft | 408 kts | 257° |
| 2026-04-28 23:55 | -28.85146 | -56.48303 | 36071 ft | 408 kts | 257° |
| 2026-04-28 23:56 | -28.87282 | -56.54308 | 36076 ft | 408 kts | 257° |
| 2026-04-28 23:56 | -28.89396 | -56.60283 | 36074 ft | 410 kts | 257° |
| 2026-04-28 23:57 | -28.91538 | -56.66334 | 36074 ft | 412 kts | 256° |
| 2026-04-28 23:57 | -28.93687 | -56.72396 | 36073 ft | 412 kts | 256° |
| 2026-04-28 23:58 | -28.95832 | -56.78456 | 36074 ft | 412 kts | 257° |
| 2026-04-28 23:58 | -28.97973 | -56.84514 | 36095 ft | 411 kts | 256° |
| 2026-04-28 23:59 | -29.00100 | -56.90552 | 36080 ft | 413 kts | 256° |
| 2026-04-28 23:59 | -29.02246 | -56.96648 | 36076 ft | 413 kts | 256° |
| 2026-04-29 00:00 | -29.04387 | -57.02736 | 36078 ft | 413 kts | 256° |
| 2026-04-29 00:00 | -29.06524 | -57.08825 | 36081 ft | 412 kts | 256° |
| 2026-04-29 00:01 | -29.08642 | -57.14874 | 36082 ft | 414 kts | 256° |
| 2026-04-29 00:01 | -29.10782 | -57.20995 | 36077 ft | 414 kts | 256° |
| 2026-04-29 00:02 | -29.12918 | -57.27113 | 36075 ft | 414 kts | 256° |
| 2026-04-29 00:02 | -29.15051 | -57.33232 | 36077 ft | 414 kts | 256° |
| 2026-04-29 00:03 | -29.17163 | -57.39305 | 36090 ft | 414 kts | 256° |
| 2026-04-29 00:03 | -29.19283 | -57.45452 | 36077 ft | 416 kts | 256° |
| 2026-04-29 00:04 | -29.21400 | -57.51609 | 36081 ft | 416 kts | 256° |
| 2026-04-29 00:04 | -29.23527 | -57.57773 | 36078 ft | 416 kts | 256° |
| 2026-04-29 00:05 | -29.25691 | -57.63872 | 36077 ft | 417 kts | 255° |
| 2026-04-29 00:05 | -29.27974 | -57.69996 | 36081 ft | 418 kts | 254° |
| 2026-04-29 00:06 | -29.30274 | -57.76123 | 36069 ft | 419 kts | 254° |
| 2026-04-29 00:06 | -29.32567 | -57.82255 | 36077 ft | 419 kts | 254° |
| 2026-04-29 00:07 | -29.34853 | -57.88386 | 36067 ft | 419 kts | 254° |
| 2026-04-29 00:07 | -29.37121 | -57.94486 | 36077 ft | 419 kts | 254° |
| 2026-04-29 00:08 | -29.39410 | -58.00654 | 36072 ft | 421 kts | 253° |
| 2026-04-29 00:08 | -29.41691 | -58.06829 | 36073 ft | 420 kts | 255° |
| 2026-04-29 00:09 | -29.43789 | -58.13069 | 36074 ft | 419 kts | 256° |
| 2026-04-29 00:09 | -29.45806 | -58.19336 | 36074 ft | 419 kts | 256° |
| 2026-04-29 00:10 | -29.47815 | -58.25581 | 36075 ft | 422 kts | 256° |
| 2026-04-29 00:10 | -29.49857 | -58.31900 | 36070 ft | 423 kts | 256° |
| 2026-04-29 00:11 | -29.51902 | -58.38226 | 36071 ft | 423 kts | 256° |
| 2026-04-29 00:12 | -29.54950 | -58.47680 | 36071 ft | 423 kts | 256° |
| 2026-04-29 00:12 | -29.56999 | -58.54058 | 36067 ft | 427 kts | 255° |
| 2026-04-29 00:13 | -29.59057 | -58.60467 | 36065 ft | 428 kts | 255° |
| 2026-04-29 00:13 | -29.61117 | -58.66891 | 36065 ft | 428 kts | 255° |
| 2026-04-29 00:14 | -29.63172 | -58.73318 | 36064 ft | 428 kts | 255° |
| 2026-04-29 00:14 | -29.65210 | -58.79704 | 36065 ft | 428 kts | 255° |
| 2026-04-29 00:15 | -29.67259 | -58.86136 | 36065 ft | 428 kts | 255° |
| 2026-04-29 00:15 | -29.69337 | -58.92558 | 36065 ft | 429 kts | 255° |
| 2026-04-29 00:16 | -29.71442 | -58.98927 | 36062 ft | 429 kts | 254° |
| 2026-04-29 00:16 | -29.73571 | -59.05342 | 36063 ft | 431 kts | 254° |
| 2026-04-29 00:17 | -29.75713 | -59.11807 | 36062 ft | 433 kts | 253° |
| 2026-04-29 00:17 | -29.77858 | -59.18291 | 36064 ft | 434 kts | 253° |
| 2026-04-29 00:18 | -29.80000 | -59.24781 | 36063 ft | 434 kts | 253° |
| 2026-04-29 00:18 | -29.82124 | -59.31228 | 36060 ft | 434 kts | 254° |
| 2026-04-29 00:19 | -29.84267 | -59.37754 | 36062 ft | 438 kts | 253° |
| 2026-04-29 00:19 | -29.86428 | -59.44339 | 36061 ft | 440 kts | 252° |
| 2026-04-29 00:20 | -29.88593 | -59.50952 | 36057 ft | 442 kts | 252° |
| 2026-04-29 00:20 | -29.90764 | -59.57593 | 36057 ft | 443 kts | 252° |
| 2026-04-29 00:21 | -29.92922 | -59.64209 | 36056 ft | 447 kts | 251° |
| 2026-04-29 00:21 | -29.95111 | -59.70934 | 36054 ft | 448 kts | 251° |
| 2026-04-29 00:22 | -29.97296 | -59.77667 | 36052 ft | 448 kts | 251° |
| 2026-04-29 00:22 | -29.99461 | -59.84413 | 36051 ft | 448 kts | 251° |
| 2026-04-29 00:23 | -30.01616 | -59.91114 | 36052 ft | 450 kts | 250° |
| 2026-04-29 00:23 | -30.03810 | -59.97920 | 36050 ft | 453 kts | 250° |
| 2026-04-29 00:24 | -30.06011 | -60.04747 | 36051 ft | 454 kts | 250° |
| 2026-04-29 00:24 | -30.08207 | -60.11575 | 36045 ft | 454 kts | 250° |
| 2026-04-29 00:25 | -30.10401 | -60.18411 | 36044 ft | 454 kts | 250° |
| 2026-04-29 00:25 | -30.12588 | -60.25243 | 36044 ft | 458 kts | 249° |
| 2026-04-29 00:26 | -30.14796 | -60.32149 | 36046 ft | 458 kts | 249° |
| 2026-04-29 00:26 | -30.16999 | -60.39060 | 36045 ft | 459 kts | 249° |
| 2026-04-29 00:27 | -30.19189 | -60.45982 | 36039 ft | 459 kts | 249° |
| 2026-04-29 00:27 | -30.21372 | -60.52893 | 36041 ft | 462 kts | 248° |
| 2026-04-29 00:28 | -30.23584 | -60.59875 | 36038 ft | 463 kts | 248° |
| 2026-04-29 00:28 | -30.25794 | -60.66858 | 36034 ft | 463 kts | 248° |
| 2026-04-29 00:29 | -30.28005 | -60.73859 | 36032 ft | 463 kts | 248° |
| 2026-04-29 00:29 | -30.30208 | -60.80856 | 36032 ft | 463 kts | 247° |
| 2026-04-29 00:30 | -30.32394 | -60.87808 | 36029 ft | 463 kts | 247° |
| 2026-04-29 00:30 | -30.34593 | -60.94816 | 36032 ft | 463 kts | 247° |
| 2026-04-29 00:31 | -30.36787 | -61.01825 | 36031 ft | 463 kts | 247° |
| 2026-04-29 00:31 | -30.38973 | -61.08841 | 36027 ft | 463 kts | 246° |
| 2026-04-29 00:32 | -30.41140 | -61.15817 | 36023 ft | 463 kts | 246° |
| 2026-04-29 00:32 | -30.43328 | -61.22840 | 36021 ft | 463 kts | 246° |
| 2026-04-29 00:33 | -30.45517 | -61.29866 | 36023 ft | 463 kts | 246° |
| 2026-04-29 00:33 | -30.47701 | -61.36893 | 36013 ft | 463 kts | 245° |
| 2026-04-29 00:34 | -30.49881 | -61.43916 | 36014 ft | 463 kts | 245° |
| 2026-04-29 00:34 | -30.52040 | -61.50893 | 36015 ft | 463 kts | 245° |
| 2026-04-29 00:35 | -30.54202 | -61.57928 | 36011 ft | 463 kts | 245° |
| 2026-04-29 00:35 | -30.56362 | -61.64961 | 36011 ft | 463 kts | 245° |
| 2026-04-29 00:36 | -30.58498 | -61.71959 | 36009 ft | 463 kts | 245° |
| 2026-04-29 00:36 | -30.60639 | -61.79007 | 36010 ft | 463 kts | 245° |
| 2026-04-29 00:37 | -30.62777 | -61.86058 | 36010 ft | 463 kts | 245° |
| 2026-04-29 00:37 | -30.64914 | -61.93116 | 35993 ft | 463 kts | 245° |
| 2026-04-29 00:38 | -30.67040 | -62.00154 | 36006 ft | 462 kts | 244° |
| 2026-04-29 00:38 | -30.69148 | -62.07143 | 36005 ft | 461 kts | 244° |
| 2026-04-29 00:39 | -30.71266 | -62.14179 | 36005 ft | 461 kts | 245° |
| 2026-04-29 00:39 | -30.73379 | -62.21218 | 36000 ft | 461 kts | 245° |
| 2026-04-29 00:40 | -30.75485 | -62.28254 | 35995 ft | 460 kts | 244° |
| 2026-04-29 00:40 | -30.77572 | -62.35237 | 35997 ft | 460 kts | 244° |
| 2026-04-29 00:41 | -30.79664 | -62.42281 | 35809 ft | 461 kts | 244° |
| 2026-04-29 00:41 | -30.80710 | -62.45807 | 35502 ft | 462 kts | 244° |
| 2026-04-29 00:41 | -30.81762 | -62.49343 | 35086 ft | 463 kts | 243° |
| 2026-04-29 00:41 | -30.82821 | -62.52898 | 34482 ft | 466 kts | 243° |
| 2026-04-29 00:42 | -30.83884 | -62.56465 | 33902 ft | 468 kts | 243° |
| 2026-04-29 00:42 | -30.84952 | -62.60048 | 33277 ft | 470 kts | 243° |
| 2026-04-29 00:42 | -30.86025 | -62.63652 | 32674 ft | 473 kts | 244° |
| 2026-04-29 00:42 | -30.87088 | -62.67227 | 32101 ft | 475 kts | 244° |
| 2026-04-29 00:43 | -30.88170 | -62.70870 | 31516 ft | 478 kts | 244° |
| 2026-04-29 00:43 | -30.89257 | -62.74538 | 30901 ft | 481 kts | 245° |
| 2026-04-29 00:43 | -30.90347 | -62.78222 | 30216 ft | 482 kts | 245° |
| 2026-04-29 00:43 | -30.91435 | -62.81910 | 29456 ft | 480 kts | 245° |
| 2026-04-29 00:44 | -30.92509 | -62.85562 | 28726 ft | 474 kts | 246° |
| 2026-04-29 00:44 | -30.93567 | -62.89165 | 28050 ft | 467 kts | 246° |
| 2026-04-29 00:44 | -30.94613 | -62.92728 | 27392 ft | 462 kts | 246° |
| 2026-04-29 00:44 | -30.95650 | -62.96255 | 26745 ft | 458 kts | 246° |
| 2026-04-29 00:45 | -30.96662 | -62.99702 | 26112 ft | 453 kts | 246° |
| 2026-04-29 00:45 | -30.97678 | -63.03160 | 25481 ft | 449 kts | 246° |
| 2026-04-29 00:45 | -30.98682 | -63.06586 | 24849 ft | 445 kts | 246° |
| 2026-04-29 00:45 | -30.99678 | -63.09984 | 24219 ft | 441 kts | 247° |
| 2026-04-29 00:46 | -31.00663 | -63.13350 | 23595 ft | 437 kts | 247° |
| 2026-04-29 00:46 | -31.01658 | -63.16661 | 22900 ft | 429 kts | 244° |
| 2026-04-29 00:46 | -31.03058 | -63.19683 | 22244 ft | 419 kts | 232° |
| 2026-04-29 00:46 | -31.04862 | -63.22322 | 21622 ft | 414 kts | 225° |
| 2026-04-29 00:47 | -31.06810 | -63.24780 | 21003 ft | 411 kts | 223° |
| 2026-04-29 00:47 | -31.08782 | -63.27176 | 20395 ft | 408 kts | 223° |
| 2026-04-29 00:47 | -31.10711 | -63.29532 | 19810 ft | 406 kts | 224° |
| 2026-04-29 00:47 | -31.12640 | -63.31926 | 19228 ft | 404 kts | 224° |
| 2026-04-29 00:48 | -31.14543 | -63.34326 | 18628 ft | 402 kts | 224° |
| 2026-04-29 00:48 | -31.16426 | -63.36727 | 18005 ft | 400 kts | 225° |
| 2026-04-29 00:48 | -31.18289 | -63.39116 | 17365 ft | 396 kts | 225° |
| 2026-04-29 00:48 | -31.20134 | -63.41491 | 16771 ft | 393 kts | 225° |
| 2026-04-29 00:49 | -31.21960 | -63.43846 | 16169 ft | 390 kts | 225° |
| 2026-04-29 00:49 | -31.23769 | -63.46181 | 15620 ft | 384 kts | 226° |
| 2026-04-29 00:49 | -31.25551 | -63.48484 | 15091 ft | 380 kts | 226° |
| 2026-04-29 00:49 | -31.27295 | -63.50738 | 14538 ft | 378 kts | 226° |
| 2026-04-29 00:50 | -31.29051 | -63.53007 | 14003 ft | 375 kts | 226° |
| 2026-04-29 00:50 | -31.30791 | -63.55259 | 13439 ft | 372 kts | 226° |
| 2026-04-29 00:50 | -31.32523 | -63.57499 | 12856 ft | 370 kts | 226° |
| 2026-04-29 00:50 | -31.34242 | -63.59725 | 12322 ft | 368 kts | 226° |
| 2026-04-29 00:51 | -31.35948 | -63.61935 | 11794 ft | 363 kts | 227° |
| 2026-04-29 00:51 | -31.37640 | -63.64127 | 11358 ft | 362 kts | 227° |
| 2026-04-29 00:51 | -31.39323 | -63.66310 | 11107 ft | 360 kts | 227° |
| 2026-04-29 00:51 | -31.40947 | -63.68417 | 11009 ft | 337 kts | 228° |
| 2026-04-29 00:52 | -31.42366 | -63.70440 | 10885 ft | 316 kts | 236° |
| 2026-04-29 00:52 | -31.43303 | -63.72674 | 10773 ft | 298 kts | 253° |
| 2026-04-29 00:52 | -31.43611 | -63.75013 | 10664 ft | 287 kts | 266° |
| 2026-04-29 00:52 | -31.43662 | -63.77338 | 10531 ft | 285 kts | 269° |
| 2026-04-29 00:53 | -31.43659 | -63.79673 | 10228 ft | 287 kts | 270° |
| 2026-04-29 00:53 | -31.43648 | -63.81997 | 9734 ft | 286 kts | 270° |
| 2026-04-29 00:53 | -31.43640 | -63.84326 | 9206 ft | 286 kts | 270° |
| 2026-04-29 00:53 | -31.43636 | -63.86628 | 8708 ft | 286 kts | 270° |
| 2026-04-29 00:54 | -31.43635 | -63.88959 | 8217 ft | 286 kts | 271° |
| 2026-04-29 00:54 | -31.43635 | -63.91284 | 7745 ft | 285 kts | 271° |
| 2026-04-29 00:54 | -31.43638 | -63.93595 | 7424 ft | 279 kts | 271° |
| 2026-04-29 00:54 | -31.43657 | -63.95814 | 7289 ft | 268 kts | 270° |
| 2026-04-29 00:55 | -31.43707 | -63.97974 | 7010 ft | 262 kts | 269° |
| 2026-04-29 00:55 | -31.43756 | -64.00109 | 6617 ft | 263 kts | 270° |
| 2026-04-29 00:55 | -31.43776 | -64.02246 | 6281 ft | 260 kts | 271° |
| 2026-04-29 00:55 | -31.43785 | -64.04338 | 6046 ft | 253 kts | 272° |
| 2026-04-29 00:56 | -31.43766 | -64.06330 | 5835 ft | 245 kts | 271° |
| 2026-04-29 00:56 | -31.43753 | -64.08256 | 5672 ft | 227 kts | 271° |
| 2026-04-29 00:56 | -31.43735 | -64.10066 | 5354 ft | 218 kts | 271° |
| 2026-04-29 00:56 | -31.43721 | -64.11794 | 5084 ft | 208 kts | 271° |
| 2026-04-29 00:57 | -31.43691 | -64.13472 | 4751 ft | 204 kts | 272° |
| 2026-04-29 00:57 | -31.43605 | -64.15102 | 4438 ft | 198 kts | 279° |
| 2026-04-29 00:57 | -31.43219 | -64.16597 | 4154 ft | 183 kts | 296° |
| 2026-04-29 00:57 | -31.42556 | -64.17765 | 3823 ft | 165 kts | 313° |
| 2026-04-29 00:58 | -31.41688 | -64.18604 | 3494 ft | 158 kts | 327° |
| 2026-04-29 00:58 | -31.40745 | -64.19221 | 3318 ft | 153 kts | 332° |
| 2026-04-29 00:58 | -31.39794 | -64.19731 | 3232 ft | 154 kts | 335° |
| 2026-04-29 00:58 | -31.38816 | -64.20173 | 2997 ft | 150 kts | 339° |
| 2026-04-29 00:59 | -31.37816 | -64.20550 | 2717 ft | 151 kts | 343° |
| 2026-04-29 00:59 | -31.36808 | -64.20759 | 2491 ft | 144 kts | 356° |
| 2026-04-29 00:59 | -31.35789 | -64.20733 | 2318 ft | 149 kts | 358° |
| 2026-04-29 00:59 | -31.34761 | -64.20806 | 2148 ft | 146 kts | 360° |
| 2026-04-29 01:00 | -31.33756 | -64.20796 | 1945 ft | 145 kts | 0° |
| 2026-04-29 01:00 | -31.32730 | -64.20811 | 1715 ft | 148 kts | 1° |
| 2026-04-29 01:00 | -31.31747 | -64.20823 | 1626 ft | 127 kts | 359° |
| 2026-04-29 01:00 | -31.31072 | -64.20835 | 1624 ft | 71 kts | 359° |
| 2026-04-29 01:01 | -31.30631 | -64.20841 | 1627 ft | 46 kts | 358° |
| 2026-04-29 01:01 | -31.30428 | -64.20838 | 1627 ft | 15 kts | 14° |
| 2026-04-29 01:01 | -31.30347 | -64.20828 | 1624 ft | 4 kts | 340° |
| 2026-04-29 01:01 | -31.30345 | -64.20845 | 1623 ft | 2 kts | 259° |
| 2026-04-29 01:02 | -31.30377 | -64.20853 | 1624 ft | 11 kts | 180° |
| 2026-04-29 01:02 | -31.30509 | -64.20844 | 1626 ft | 24 kts | 178° |
| 2026-04-29 01:02 | -31.30677 | -64.20841 | 1629 ft | 24 kts | 179° |
| 2026-04-29 01:02 | -31.30844 | -64.20838 | 1625 ft | 24 kts | 178° |
| 2026-04-29 01:03 | -31.31005 | -64.20836 | 1621 ft | 23 kts | 179° |
| 2026-04-29 01:03 | -31.31174 | -64.20832 | 1624 ft | 24 kts | 179° |
| 2026-04-29 01:03 | -31.31339 | -64.20831 | 1626 ft | 23 kts | 179° |
| 2026-04-29 01:03 | -31.31447 | -64.20875 | 1624 ft | 12 kts | 243° |
| 2026-04-29 01:04 | -31.31467 | -64.20970 | 1621 ft | 12 kts | 263° |
| 2026-04-29 01:04 | -31.31467 | -64.21056 | 1623 ft | 6 kts | 289° |
| 2026-04-29 01:04 | -31.31426 | -64.21093 | 1626 ft | 10 kts | 342° |
| 2026-04-29 01:04 | -31.31345 | -64.21100 | 1625 ft | 13 kts | 358° |
| 2026-04-29 01:05 | -31.31282 | -64.21108 | 1626 ft | 2 kts | 322° |
| 2026-04-29 01:05 | -31.31269 | -64.21142 | 1625 ft | 8 kts | 286° |
| 2026-04-29 01:05 | -31.31265 | -64.21170 | 1622 ft | 2 kts | 283° |
| 2026-04-29 01:05 | -31.31265 | -64.21175 | 1623 ft | 0 kts | 273° |